Schefferville, Canada
Current Conditions -  °F | °C
As of 5:19 PM on Sunday 23 Nov 2014 (Local Time) from CYKL Reporting Station
Light Snow Light Snow  
Wind Chill: -5°   Ceiling: Unl
Heat Index: 10°   Visibility: 9mi
Dew Point:   Wind: 14mph
Humidity: 85%   Direction: 260°W
Pressure: 29.71"   Gusts: NA
Location:  54.8°N, 66.83°W
Report Text: CYKL 232219Z AUTO 26012KT 9SM -SN CLR M12/M14 A2971 RMK SLP110
Loading
Personal Weather Stations






























Interactive Weather Map New forecast layout! Learn more

10-Day Weather Forecast

Advertisements
Track Severe Weather on mobile